In Rescue
 
Open Full Screen Window  High Contrast Mode
Wind Gusting 00 knots
03
October 19, 2020 8:33 PM EDT
Present Weather: Rain
Weather Information
Wind Direction
  020 °
Wind Speed
  03 kt (3 mph)
Wind Gust
  00 kt (0 mph)
Altimeter
30.20 in
Visibility
10 SM
Temperature
04° C
39° F
Dewpoint
03° C
37° F
Humidity
93%
Sky Condition
Overcast @ 7,500 ft
Broken @ 5,500 ft
VFR

METAR KTEW 200033Z AUTO 02003KT 10SM RA BKN055 OVC075 04/03 A3020 RMK AO2 T00430028

FAA Disclaimer: The data displayed is for advisory purposes only and is not to be used for flight planning or operations.